Time;durP1;ratioP1;P1;durP2;ratioP2;P2;SDS_P1;SDS_P2;PMS_P1;PMS_P2;Temp;Humidity;BMP_temperature;BMP_pressure;BME280_temperature;BME280_humidity;BME280_pressure;Samples;Min_cycle;Max_cycle;Signal;HPM_P1;HPM_P2
2022/09/09 00:00:27;;;;;;;7.00;6.50;;;15.10;99.90;;;;;;4933326;29;20240;-78
2022/09/09 00:03:02;;;;;;;7.03;6.30;;;15.00;99.90;;;;;;4938163;29;20735;-77
2022/09/09 00:05:34;;;;;;;6.40;6.00;;;15.00;99.90;;;;;;4942824;29;20214;-78
2022/09/09 00:08:04;;;;;;;7.03;6.40;;;14.90;99.90;;;;;;4935796;29;20225;-77
2022/09/09 00:10:35;;;;;;;6.60;6.10;;;14.90;99.90;;;;;;4958846;23;20229;-76
2022/09/09 00:13:16;;;;;;;7.50;6.80;;;14.90;99.90;;;;;;4933950;29;20674;-76
2022/09/09 00:15:51;;;;;;;9.63;7.53;;;14.80;99.90;;;;;;4932014;29;20206;-78
2022/09/09 00:18:25;;;;;;;11.13;7.67;;;14.80;99.90;;;;;;4934501;29;20208;-78
2022/09/09 00:20:58;;;;;;;7.30;6.70;;;14.80;99.90;;;;;;4938741;29;20237;-76
2022/09/09 00:23:28;;;;;;;6.87;6.20;;;14.80;99.90;;;;;;4934875;29;20198;-76
2022/09/09 00:26:04;;;;;;;6.27;5.70;;;14.80;99.90;;;;;;4934902;29;20213;-76
2022/09/09 00:28:40;;;;;;;6.60;6.10;;;14.80;99.90;;;;;;4934930;29;20207;-76
2022/09/09 00:31:14;;;;;;;6.50;6.00;;;14.70;99.90;;;;;;4933616;29;20234;-75
2022/09/09 00:33:42;;;;;;;6.57;5.97;;;14.70;99.90;;;;;;4934471;29;20203;-76
2022/09/09 00:36:15;;;;;;;6.70;6.10;;;14.60;99.90;;;;;;4934925;29;20194;-76
2022/09/09 00:38:49;;;;;;;6.83;6.33;;;14.70;99.90;;;;;;4933635;29;20234;-78
2022/09/09 00:41:21;;;;;;;7.43;6.57;;;14.70;99.90;;;;;;4940878;29;20225;-78
2022/09/09 00:43:57;;;;;;;6.70;6.20;;;14.70;99.90;;;;;;4943118;29;20207;-78
2022/09/09 00:46:51;;;;;;;6.53;6.00;;;14.70;99.90;;;;;;4941945;29;20228;-78
2022/09/09 00:49:31;;;;;;;7.23;6.43;;;14.70;99.90;;;;;;4935879;29;20203;-78
2022/09/09 00:52:13;;;;;;;7.00;6.30;;;14.70;99.90;;;;;;4943077;29;20203;-78
2022/09/09 00:54:47;;;;;;;6.30;5.90;;;14.70;99.90;;;;;;4941676;29;20258;-78
2022/09/09 00:57:24;;;;;;;6.43;5.93;;;14.70;99.90;;;;;;4927928;29;20211;-78
2022/09/09 00:59:58;;;;;;;7.00;6.50;;;14.70;99.90;;;;;;4942680;29;20223;-78
2022/09/09 01:02:31;;;;;;;6.70;6.20;;;14.60;99.90;;;;;;4940789;29;20203;-78
2022/09/09 01:05:07;;;;;;;7.83;7.13;;;14.60;99.90;;;;;;4941278;29;20691;-78
2022/09/09 01:07:34;;;;;;;6.70;6.20;;;14.60;99.90;;;;;;4942828;29;20286;-78
2022/09/09 01:10:04;;;;;;;6.40;5.80;;;14.60;99.90;;;;;;4942883;29;20686;-78
2022/09/09 01:12:39;;;;;;;6.57;6.03;;;14.60;99.90;;;;;;4941000;29;20267;-78
2022/09/09 01:15:13;;;;;;;6.73;6.20;;;14.60;99.90;;;;;;4942213;29;20582;-78
2022/09/09 01:17:54;;;;;;;6.70;6.10;;;14.50;99.90;;;;;;4941481;29;20585;-78
2022/09/09 01:20:25;;;;;;;6.73;6.17;;;14.50;99.90;;;;;;4942496;29;20219;-78
2022/09/09 01:23:11;;;;;;;7.17;6.43;;;14.50;99.90;;;;;;4941850;29;20211;-78
2022/09/09 01:26:18;;;;;;;6.80;6.20;;;14.50;99.90;;;;;;4942862;29;20211;-78
2022/09/09 01:28:49;;;;;;;6.43;6.00;;;14.40;99.90;;;;;;4939054;29;20214;-78
2022/09/09 01:31:20;;;;;;;6.60;6.10;;;14.30;99.90;;;;;;4941244;29;20223;-77
2022/09/09 01:33:48;;;;;;;6.37;5.90;;;14.30;99.90;;;;;;4942349;29;20228;-78
2022/09/09 01:36:23;;;;;;;6.57;5.97;;;14.20;99.90;;;;;;4941804;29;20195;-78
2022/09/09 01:38:53;;;;;;;6.70;6.10;;;14.20;99.90;;;;;;4942313;29;20235;-78
2022/09/09 01:41:21;;;;;;;6.30;5.80;;;14.20;99.90;;;;;;4942532;29;20207;-78
2022/09/09 01:43:56;;;;;;;6.70;6.10;;;14.10;99.90;;;;;;4941519;29;20219;-78
2022/09/09 01:46:24;;;;;;;6.43;6.03;;;14.10;99.90;;;;;;4941875;29;20215;-78
2022/09/09 01:48:53;;;;;;;7.37;5.90;;;14.10;99.90;;;;;;4942312;29;20211;-78
2022/09/09 01:51:21;;;;;;;6.30;5.90;;;14.00;99.90;;;;;;4941517;29;20223;-78
2022/09/09 01:53:48;;;;;;;6.10;5.70;;;14.00;99.90;;;;;;4941293;29;20200;-78
2022/09/09 01:56:29;;;;;;;6.10;5.60;;;14.00;99.90;;;;;;4945159;29;20295;-78
2022/09/09 01:59:15;;;;;;;6.30;5.83;;;14.00;99.90;;;;;;4940460;29;20230;-78
2022/09/09 02:01:54;;;;;;;6.30;5.77;;;14.00;99.90;;;;;;4941106;29;20212;-78
2022/09/09 02:04:34;;;;;;;6.23;5.70;;;13.90;99.90;;;;;;4947678;28;20231;-76
2022/09/09 02:07:06;;;;;;;6.73;6.07;;;13.90;99.90;;;;;;4956557;29;20247;-78
2022/09/09 02:09:34;;;;;;;6.20;5.70;;;13.90;99.90;;;;;;4940804;29;20231;-77
2022/09/09 02:12:07;;;;;;;6.23;5.77;;;13.80;99.90;;;;;;4943081;29;20231;-78
2022/09/09 02:14:50;;;;;;;6.40;5.90;;;13.80;99.90;;;;;;4941031;29;20207;-78
2022/09/09 02:17:22;;;;;;;6.50;6.10;;;13.70;99.90;;;;;;4942886;29;20222;-78
2022/09/09 02:20:08;;;;;;;7.30;6.70;;;13.70;99.90;;;;;;4944882;29;20233;-77
2022/09/09 02:22:49;;;;;;;7.00;6.40;;;13.70;99.90;;;;;;4944691;29;20237;-78
2022/09/09 02:25:20;;;;;;;6.53;6.13;;;13.70;99.90;;;;;;4936959;29;20199;-78
2022/09/09 02:27:51;;;;;;;6.67;6.10;;;13.70;99.90;;;;;;4945360;29;20321;-78
2022/09/09 02:30:20;;;;;;;7.10;6.50;;;13.70;99.90;;;;;;4945932;29;20223;-78
2022/09/09 02:32:56;;;;;;;7.07;6.57;;;13.70;99.90;;;;;;4945667;29;20222;-78
2022/09/09 02:35:27;;;;;;;6.77;6.27;;;13.70;99.90;;;;;;4944366;29;20688;-78
2022/09/09 02:38:00;;;;;;;7.00;6.50;;;13.70;99.90;;;;;;4944821;29;20203;-78
2022/09/09 02:40:27;;;;;;;6.43;6.03;;;13.70;99.90;;;;;;4944766;29;20215;-78
2022/09/09 02:43:00;;;;;;;6.87;6.37;;;13.70;99.90;;;;;;4942579;29;20195;-78
2022/09/09 02:45:37;;;;;;;7.10;6.60;;;13.70;99.90;;;;;;4944103;29;20710;-78
2022/09/09 02:48:10;;;;;;;8.57;6.83;;;13.80;99.90;;;;;;4945119;29;20311;-78
2022/09/09 02:50:43;;;;;;;9.27;8.33;;;13.90;99.90;;;;;;4943209;29;20223;-76
2022/09/09 02:53:17;;;;;;;7.67;7.00;;;13.90;99.90;;;;;;4937989;29;20210;-78
2022/09/09 02:55:49;;;;;;;8.23;7.50;;;13.80;99.90;;;;;;4940589;29;20212;-78
2022/09/09 02:58:19;;;;;;;9.50;8.17;;;13.80;99.90;;;;;;4941129;29;20792;-78
2022/09/09 03:00:58;;;;;;;8.63;7.83;;;13.90;99.90;;;;;;4940656;29;20226;-78
2022/09/09 03:03:26;;;;;;;8.87;7.90;;;13.90;99.90;;;;;;4939436;29;20210;-78
2022/09/09 03:05:53;;;;;;;8.67;7.90;;;13.90;99.90;;;;;;4935086;29;20210;-78
2022/09/09 03:08:20;;;;;;;9.60;8.70;;;13.80;99.90;;;;;;4934565;29;20317;-78
2022/09/09 03:10:49;;;;;;;9.50;8.50;;;13.80;99.90;;;;;;4937851;29;20231;-77
2022/09/09 03:13:17;;;;;;;10.23;9.17;;;13.80;99.90;;;;;;4938886;29;20290;-78
2022/09/09 03:15:44;;;;;;;9.60;8.73;;;13.80;99.90;;;;;;4935974;29;20235;-76
2022/09/09 03:18:17;;;;;;;9.70;8.80;;;13.90;99.90;;;;;;4938327;29;20692;-78
2022/09/09 03:20:49;;;;;;;9.97;8.97;;;13.90;99.90;;;;;;4938783;29;20224;-77
2022/09/09 03:23:16;;;;;;;9.73;8.73;;;13.90;99.90;;;;;;4938868;29;20647;-77
2022/09/09 03:25:48;;;;;;;9.13;8.23;;;14.00;99.90;;;;;;4940055;29;20653;-77
2022/09/09 03:28:17;;;;;;;8.00;7.30;;;14.10;99.90;;;;;;4940123;29;20215;-77
2022/09/09 03:30:44;;;;;;;7.80;7.10;;;14.20;99.90;;;;;;4939672;29;20242;-77
2022/09/09 03:33:12;;;;;;;7.63;7.03;;;14.10;99.90;;;;;;4939815;29;20227;-77
2022/09/09 03:35:48;;;;;;;8.37;7.67;;;14.20;99.90;;;;;;4939058;29;20227;-77
2022/09/09 03:38:16;;;;;;;8.70;8.00;;;14.30;99.90;;;;;;4936207;29;20251;-77
2022/09/09 03:40:51;;;;;;;9.27;8.37;;;14.20;99.90;;;;;;4937014;29;20697;-77
2022/09/09 03:43:18;;;;;;;10.00;9.07;;;14.30;99.90;;;;;;4937711;29;20207;-77
2022/09/09 03:45:47;;;;;;;12.50;11.20;;;14.30;99.90;;;;;;4938515;29;20202;-77
2022/09/09 03:48:15;;;;;;;13.00;11.70;;;14.40;99.90;;;;;;4938487;29;20268;-77
2022/09/09 03:50:46;;;;;;;14.93;12.67;;;14.40;99.90;;;;;;4939246;29;20253;-77
2022/09/09 03:53:13;;;;;;;10.77;9.73;;;14.30;99.90;;;;;;4939006;29;20205;-76
2022/09/09 03:55:41;;;;;;;10.00;9.17;;;14.30;99.90;;;;;;4939217;29;20195;-77
2022/09/09 03:58:08;;;;;;;8.87;8.07;;;14.30;99.90;;;;;;4940072;29;20707;-77
2022/09/09 04:00:35;;;;;;;9.03;8.33;;;14.30;99.90;;;;;;4939569;29;20254;-77
2022/09/09 04:03:03;;;;;;;8.40;7.70;;;14.30;99.90;;;;;;4938870;29;20203;-77
2022/09/09 04:05:30;;;;;;;7.87;7.30;;;14.40;99.90;;;;;;4938790;29;20207;-77
2022/09/09 04:07:58;;;;;;;7.97;7.30;;;14.50;99.90;;;;;;4940396;29;20211;-77
2022/09/09 04:10:25;;;;;;;7.90;7.30;;;14.50;99.90;;;;;;4938256;29;20792;-77
2022/09/09 04:12:54;;;;;;;7.97;7.40;;;14.60;99.90;;;;;;4935835;29;20212;-77
2022/09/09 04:15:22;;;;;;;7.67;7.27;;;14.60;99.90;;;;;;4938156;29;20204;-77
2022/09/09 04:17:49;;;;;;;8.03;7.53;;;14.70;99.90;;;;;;4939955;29;20405;-77
2022/09/09 04:20:17;;;;;;;8.00;7.50;;;14.70;99.90;;;;;;4938142;29;20219;-77
2022/09/09 04:22:45;;;;;;;8.57;7.80;;;14.70;99.90;;;;;;4938918;29;20441;-77
2022/09/09 04:25:14;;;;;;;8.00;7.50;;;14.70;99.90;;;;;;4938183;29;20671;-77
2022/09/09 04:27:42;;;;;;;7.70;7.20;;;14.70;99.90;;;;;;4938594;29;20219;-77
2022/09/09 04:30:12;;;;;;;7.60;7.20;;;14.60;99.90;;;;;;4938752;29;20305;-77
2022/09/09 04:32:40;;;;;;;7.50;7.00;;;14.70;99.90;;;;;;4938755;29;20199;-77
2022/09/09 04:35:08;;;;;;;8.00;7.50;;;14.60;99.90;;;;;;4937895;29;20199;-77
2022/09/09 04:37:35;;;;;;;7.90;7.40;;;14.60;99.90;;;;;;4936215;29;20196;-77
2022/09/09 04:40:02;;;;;;;8.07;7.47;;;14.60;99.90;;;;;;4938296;29;20250;-77
2022/09/09 04:42:35;;;;;;;7.80;7.30;;;14.60;99.90;;;;;;4938109;29;20587;-77
2022/09/09 04:45:02;;;;;;;8.30;7.60;;;14.50;99.90;;;;;;4937585;29;20564;-77
2022/09/09 04:47:30;;;;;;;8.40;7.90;;;14.50;99.90;;;;;;4938463;29;20239;-77
2022/09/09 04:49:57;;;;;;;8.37;7.80;;;14.50;99.90;;;;;;4938548;29;20227;-77
2022/09/09 04:52:24;;;;;;;7.97;7.47;;;14.50;99.90;;;;;;4937621;29;20271;-77
2022/09/09 04:54:52;;;;;;;8.30;7.70;;;14.50;99.90;;;;;;4937690;29;20226;-77
2022/09/09 04:57:18;;;;;;;7.87;7.27;;;14.50;99.90;;;;;;4937581;29;20215;-77
2022/09/09 04:59:47;;;;;;;8.17;7.50;;;14.50;99.90;;;;;;4937924;29;20306;-77
2022/09/09 05:02:15;;;;;;;7.97;7.37;;;14.50;99.90;;;;;;4933228;29;20202;-77
2022/09/09 05:04:42;;;;;;;8.30;7.60;;;14.50;99.90;;;;;;4933167;29;20208;-77
2022/09/09 05:07:09;;;;;;;8.20;7.53;;;14.50;99.90;;;;;;4933089;29;20570;-77
2022/09/09 05:09:35;;;;;;;8.80;7.97;;;14.50;99.90;;;;;;4934628;29;20192;-77
2022/09/09 05:12:04;;;;;;;10.13;7.97;;;14.50;99.90;;;;;;4933274;29;20207;-76
2022/09/09 05:14:36;;;;;;;8.33;7.67;;;14.50;99.90;;;;;;4933040;29;20208;-77
2022/09/09 05:17:04;;;;;;;8.10;7.60;;;14.50;99.90;;;;;;4933262;29;20230;-77
2022/09/09 05:19:32;;;;;;;8.23;7.63;;;14.50;99.90;;;;;;4933033;29;20569;-77
2022/09/09 05:22:00;;;;;;;8.40;7.80;;;14.60;99.90;;;;;;4932898;29;20203;-77
2022/09/09 05:24:36;;;;;;;8.83;8.13;;;14.70;99.90;;;;;;4932778;29;20200;-77
2022/09/09 05:27:05;;;;;;;8.33;7.80;;;14.80;99.90;;;;;;4933080;29;20586;-77
2022/09/09 05:29:34;;;;;;;8.43;7.93;;;14.90;99.90;;;;;;4932844;29;20588;-76
2022/09/09 05:32:04;;;;;;;7.97;7.57;;;14.90;99.90;;;;;;4932784;29;20616;-77
2022/09/09 05:34:31;;;;;;;8.50;7.90;;;15.00;99.90;;;;;;4932976;29;20248;-77
2022/09/09 05:36:58;;;;;;;8.70;8.00;;;15.00;99.90;;;;;;4932994;29;20296;-77
2022/09/09 05:39:26;;;;;;;8.60;7.90;;;15.00;99.90;;;;;;4932850;29;20200;-77
2022/09/09 05:41:53;;;;;;;8.50;8.00;;;15.10;99.90;;;;;;4932907;29;20195;-77
2022/09/09 05:44:20;;;;;;;8.20;7.70;;;15.10;99.90;;;;;;4932462;29;20244;-77
2022/09/09 05:46:47;;;;;;;8.50;7.90;;;15.20;99.90;;;;;;4933496;29;20199;-77
2022/09/09 05:49:16;;;;;;;8.60;7.90;;;15.30;99.90;;;;;;4936320;29;20215;-77
2022/09/09 05:51:44;;;;;;;8.67;7.90;;;15.40;99.90;;;;;;4936455;29;20763;-77
2022/09/09 05:54:15;;;;;;;8.80;8.10;;;15.50;99.90;;;;;;4929227;29;20198;-77
2022/09/09 05:56:44;;;;;;;8.40;7.80;;;15.50;99.90;;;;;;4937690;29;20195;-77
2022/09/09 05:59:11;;;;;;;8.53;8.00;;;15.60;99.90;;;;;;4944895;29;20201;-77
2022/09/09 06:01:40;;;;;;;8.37;7.83;;;15.70;99.90;;;;;;4936141;29;20268;-77
2022/09/09 06:04:08;;;;;;;8.90;8.30;;;15.70;99.90;;;;;;4936013;29;20198;-77
2022/09/09 06:06:39;;;;;;;8.60;8.10;;;15.80;99.90;;;;;;4936831;29;20697;-76
2022/09/09 06:09:13;;;;;;;8.93;8.30;;;15.90;99.90;;;;;;4936634;29;20218;-77
2022/09/09 06:11:43;;;;;;;8.53;7.93;;;15.90;99.90;;;;;;4937336;29;20239;-78
2022/09/09 06:14:11;;;;;;;9.30;8.60;;;16.00;99.90;;;;;;4935877;29;20203;-77
2022/09/09 06:16:39;;;;;;;8.10;7.60;;;16.10;99.90;;;;;;4936202;29;20288;-78
2022/09/09 06:19:12;;;;;;;8.63;7.93;;;16.20;99.90;;;;;;4928557;29;20250;-78
2022/09/09 06:21:42;;;;;;;8.97;8.37;;;16.30;99.90;;;;;;4935796;29;20219;-78
2022/09/09 06:24:10;;;;;;;8.97;8.30;;;16.30;99.90;;;;;;4927684;29;20197;-77
2022/09/09 06:26:40;;;;;;;9.93;8.70;;;16.40;99.90;;;;;;4935766;29;20239;-77
2022/09/09 06:29:08;;;;;;;9.13;8.53;;;16.60;99.90;;;;;;4935654;29;20422;-78
2022/09/09 06:31:37;;;;;;;9.23;8.63;;;16.80;99.90;;;;;;4935790;29;20222;-77
2022/09/09 06:34:14;;;;;;;8.57;8.03;;;17.00;99.90;;;;;;4928250;29;20289;-77
2022/09/09 06:36:46;;;;;;;8.93;8.43;;;17.10;99.90;;;;;;4935719;29;20709;-77
2022/09/09 06:39:15;;;;;;;9.70;8.90;;;17.30;99.90;;;;;;4935464;29;20194;-78
2022/09/09 06:41:43;;;;;;;9.67;9.07;;;17.50;99.90;;;;;;4935413;29;20218;-77
2022/09/09 06:44:22;;;;;;;9.27;8.60;;;17.70;99.90;;;;;;4929190;29;20203;-78
2022/09/09 06:46:49;;;;;;;2.70;2.40;;;18.00;99.90;;;;;;4938080;29;20212;-77
2022/09/09 06:49:16;;;;;;;3.37;2.50;;;18.20;99.90;;;;;;4935711;29;20219;-78
2022/09/09 06:51:43;;;;;;;4.93;4.53;;;18.40;99.90;;;;;;4935404;29;20220;-77
2022/09/09 06:54:14;;;;;;;3.43;2.40;;;18.50;99.90;;;;;;4928002;29;20211;-78
2022/09/09 06:56:45;;;;;;;5.83;4.67;;;18.70;99.90;;;;;;4935426;29;20728;-78
2022/09/09 06:59:19;;;;;;;7.10;6.60;;;18.70;99.90;;;;;;4935341;29;20219;-78
2022/09/09 07:01:48;;;;;;;2.57;2.37;;;18.80;99.90;;;;;;4935641;29;20208;-77
2022/09/09 07:04:16;;;;;;;4.40;4.00;;;19.00;99.90;;;;;;4935124;29;20260;-78
2022/09/09 07:06:46;;;;;;;7.70;7.10;;;19.10;99.90;;;;;;4937063;29;20584;-78
2022/09/09 07:09:19;;;;;;;9.37;8.77;;;19.20;99.90;;;;;;4935570;29;20598;-78
2022/09/09 07:11:51;;;;;;;9.03;8.20;;;19.10;99.90;;;;;;4934932;29;20207;-77
2022/09/09 07:14:19;;;;;;;5.90;5.50;;;19.10;99.90;;;;;;4935150;29;20203;-78
2022/09/09 07:16:49;;;;;;;8.40;7.90;;;19.20;99.90;;;;;;4935172;29;20308;-77
2022/09/09 07:19:17;;;;;;;8.97;8.37;;;19.30;99.90;;;;;;4935547;29;20477;-78
2022/09/09 07:21:46;;;;;;;8.57;7.97;;;19.50;99.90;;;;;;4935294;29;20202;-78
2022/09/09 07:24:18;;;;;;;9.83;8.30;;;19.70;99.90;;;;;;4935229;29;20553;-78
2022/09/09 07:26:46;;;;;;;2.50;2.30;;;19.80;99.90;;;;;;4935814;29;20221;-78
2022/09/09 07:29:13;;;;;;;8.83;8.20;;;19.90;99.90;;;;;;4935535;29;20314;-78
2022/09/09 07:31:43;;;;;;;8.23;7.63;;;20.10;99.90;;;;;;4936001;29;20577;-77
2022/09/09 07:34:18;;;;;;;7.43;6.90;;;20.30;99.90;;;;;;4936132;29;20207;-77
2022/09/09 07:36:46;;;;;;;7.90;7.30;;;20.50;99.90;;;;;;4935264;29;20202;-76
2022/09/09 07:39:14;;;;;;;7.80;7.20;;;20.70;99.90;;;;;;4934697;29;20192;-76
2022/09/09 07:41:49;;;;;;;6.77;6.27;;;21.00;99.90;;;;;;4934334;29;20204;-76
2022/09/09 07:44:21;;;;;;;5.37;4.87;;;21.20;99.90;;;;;;4934157;29;20254;-76
2022/09/09 07:46:51;;;;;;;4.37;2.43;;;21.20;99.90;;;;;;4934170;29;20226;-75
2022/09/09 07:49:24;;;;;;;4.63;2.27;;;21.60;99.90;;;;;;4934210;29;20222;-76
2022/09/09 07:51:50;;;;;;;4.50;2.67;;;21.70;99.90;;;;;;4934079;29;20205;-76
2022/09/09 07:54:23;;;;;;;4.60;3.60;;;21.80;99.90;;;;;;4933952;29;20214;-76
2022/09/09 07:56:52;;;;;;;5.10;3.60;;;22.00;99.90;;;;;;4934018;29;20207;-75
2022/09/09 07:59:22;;;;;;;7.80;7.20;;;22.30;99.90;;;;;;4933998;29;20728;-76
2022/09/09 08:01:54;;;;;;;5.30;4.83;;;22.70;99.90;;;;;;4933993;29;20673;-75
2022/09/09 08:04:26;;;;;;;9.10;8.03;;;22.50;99.90;;;;;;4933891;29;20211;-76
2022/09/09 08:06:55;;;;;;;7.37;6.73;;;22.80;99.90;;;;;;4933913;29;20195;-75
2022/09/09 08:09:26;;;;;;;5.40;2.97;;;23.00;99.90;;;;;;4927138;29;20739;-76
2022/09/09 08:11:58;;;;;;;7.80;7.17;;;23.50;99.90;;;;;;4933353;29;20222;-75
2022/09/09 08:14:26;;;;;;;5.10;3.80;;;24.30;99.90;;;;;;4933647;29;20235;-75
2022/09/09 08:16:53;;;;;;;4.30;3.90;;;24.70;99.90;;;;;;4933646;29;20299;-76
2022/09/09 08:19:23;;;;;;;8.60;8.10;;;24.50;99.90;;;;;;4933553;29;20280;-76
2022/09/09 08:21:50;;;;;;;10.07;9.37;;;24.10;99.90;;;;;;4933548;29;20210;-76
2022/09/09 08:24:19;;;;;;;9.07;8.47;;;23.80;99.90;;;;;;4933308;29;20211;-75
2022/09/09 08:26:49;;;;;;;4.43;3.10;;;23.60;99.90;;;;;;4933567;29;20211;-76
2022/09/09 08:29:20;;;;;;;4.30;2.70;;;23.00;99.90;;;;;;4934719;29;20229;-76
2022/09/09 08:31:50;;;;;;;4.50;4.13;;;22.70;99.90;;;;;;4933406;29;20517;-76
2022/09/09 08:34:19;;;;;;;6.97;6.50;;;22.40;99.90;;;;;;4933277;29;20290;-76
2022/09/09 08:36:47;;;;;;;8.00;7.30;;;22.20;99.90;;;;;;4933550;29;20202;-75
2022/09/09 08:39:16;;;;;;;9.20;8.30;;;22.20;99.90;;;;;;4933544;29;20290;-76
2022/09/09 08:42:06;;;;;;;8.17;7.43;;;22.40;99.90;;;;;;4933291;29;20219;-76
2022/09/09 08:44:49;;;;;;;8.30;7.70;;;22.70;99.90;;;;;;4933168;29;20260;-75
2022/09/09 08:47:27;;;;;;;6.70;6.03;;;22.90;99.90;;;;;;4926610;29;20234;-75
2022/09/09 08:50:09;;;;;;;7.77;7.10;;;22.90;99.90;;;;;;4933248;29;20258;-75
2022/09/09 08:52:39;;;;;;;7.47;6.97;;;23.00;99.90;;;;;;4933150;29;20649;-76
2022/09/09 08:55:21;;;;;;;7.60;6.90;;;22.80;99.90;;;;;;4932979;29;20210;-76
2022/09/09 08:57:49;;;;;;;6.97;6.47;;;22.60;99.90;;;;;;4933091;29;20199;-76
2022/09/09 09:00:17;;;;;;;2.53;2.07;;;22.60;99.90;;;;;;4933062;29;21360;-76
2022/09/09 09:02:55;;;;;;;3.77;2.40;;;22.40;99.90;;;;;;4933036;29;20234;-75
2022/09/09 09:05:32;;;;;;;3.77;2.13;;;22.30;99.90;;;;;;4933073;29;20191;-76
2022/09/09 09:08:07;;;;;;;2.70;2.03;;;22.30;99.90;;;;;;4933092;29;20293;-75
2022/09/09 09:10:46;;;;;;;3.60;2.33;;;22.30;99.90;;;;;;4932985;29;20613;-76
2022/09/09 09:13:20;;;;;;;2.60;1.97;;;22.40;99.90;;;;;;4925902;29;20195;-75
2022/09/09 09:15:53;;;;;;;2.00;1.80;;;22.50;99.90;;;;;;4932926;29;20211;-75
2022/09/09 09:18:20;;;;;;;3.10;2.10;;;22.50;99.90;;;;;;4933241;29;20558;-76
2022/09/09 09:21:01;;;;;;;3.40;1.90;;;22.80;99.90;;;;;;4933440;29;20281;-76
2022/09/09 09:23:38;;;;;;;3.37;2.03;;;23.40;99.90;;;;;;4936753;29;20203;-76
2022/09/09 09:26:10;;;;;;;3.27;2.07;;;23.30;99.90;;;;;;4936797;29;20199;-75
2022/09/09 09:28:38;;;;;;;3.73;2.00;;;23.30;99.90;;;;;;4936810;29;20203;-76
2022/09/09 09:31:14;;;;;;;4.80;4.40;;;23.70;99.90;;;;;;4921861;29;20218;-75
2022/09/09 09:33:49;;;;;;;6.70;6.20;;;24.10;99.90;;;;;;4936601;29;20677;-76
2022/09/09 09:36:18;;;;;;;7.30;6.70;;;24.40;99.90;;;;;;4936899;29;20203;-76
2022/09/09 09:38:55;;;;;;;7.70;7.10;;;24.70;99.90;;;;;;4936660;29;20294;-76
2022/09/09 09:41:38;;;;;;;6.43;5.93;;;24.90;99.90;;;;;;4936591;29;20317;-76
2022/09/09 09:44:07;;;;;;;5.20;4.80;;;25.30;99.90;;;;;;4936124;29;20207;-75
2022/09/09 09:46:36;;;;;;;5.90;5.40;;;25.40;99.90;;;;;;4936363;29;20652;-76
2022/09/09 09:49:13;;;;;;;5.77;5.27;;;25.50;99.90;;;;;;4928629;29;20238;-76
2022/09/09 09:51:41;;;;;;;5.63;5.23;;;25.30;99.90;;;;;;4936441;29;20742;-76
2022/09/09 09:54:20;;;;;;;7.00;6.50;;;25.40;99.90;;;;;;4936180;29;20203;-76
2022/09/09 09:56:52;;;;;;;7.80;7.10;;;25.30;99.90;;;;;;4936508;29;20221;-75
2022/09/09 09:59:34;;;;;;;7.83;7.03;;;25.30;99.90;;;;;;4936189;29;20199;-76
2022/09/09 10:02:15;;;;;;;6.60;6.00;;;25.30;99.90;;;;;;4936122;29;20701;-75
2022/09/09 10:04:45;;;;;;;7.03;6.63;;;25.50;99.90;;;;;;4936054;29;20294;-75
2022/09/09 10:07:12;;;;;;;7.00;6.50;;;25.50;99.90;;;;;;4931377;29;20685;-78
2022/09/09 10:09:40;;;;;;;7.63;7.03;;;25.30;99.90;;;;;;4935625;29;20211;-75
2022/09/09 10:12:18;;;;;;;7.50;6.80;;;24.90;99.90;;;;;;4936116;29;20215;-76
2022/09/09 10:14:55;;;;;;;7.17;6.67;;;24.60;99.90;;;;;;4936954;29;20203;-75
2022/09/09 10:17:31;;;;;;;7.37;6.77;;;24.30;99.90;;;;;;4937545;29;20191;-77
2022/09/09 10:20:15;;;;;;;7.63;7.00;;;24.00;99.90;;;;;;4936421;29;20223;-76
2022/09/09 10:22:48;;;;;;;7.20;6.50;;;24.10;99.90;;;;;;4936691;29;20694;-76
2022/09/09 10:25:29;;;;;;;6.53;5.93;;;24.30;99.90;;;;;;4950633;29;20215;-75
2022/09/09 10:28:19;;;;;;;8.07;6.90;;;24.30;99.90;;;;;;4936477;29;20577;-76
2022/09/09 10:30:56;;;;;;;6.80;6.27;;;24.40;99.90;;;;;;4936275;29;20287;-76
2022/09/09 10:33:33;;;;;;;6.83;6.33;;;24.60;99.90;;;;;;4933556;29;20625;-75
2022/09/09 10:36:08;;;;;;;6.70;6.10;;;24.70;99.90;;;;;;4936128;29;20195;-76
2022/09/09 10:38:40;;;;;;;6.80;6.23;;;24.50;99.90;;;;;;4936183;29;20217;-75
2022/09/09 10:41:23;;;;;;;6.70;6.10;;;24.40;99.90;;;;;;4929186;29;20230;-75
2022/09/09 10:44:26;;;;;;;5.63;5.20;;;24.30;99.90;;;;;;4919167;29;20212;-76
2022/09/09 10:47:15;;;;;;;6.60;6.10;;;24.10;99.90;;;;;;4906124;29;20614;-76
2022/09/09 10:50:08;;;;;;;6.57;5.97;;;24.10;99.90;;;;;;4919547;29;20220;-75
2022/09/09 10:52:43;;;;;;;6.20;5.80;;;24.20;99.90;;;;;;4935777;29;20207;-76
2022/09/09 10:55:14;;;;;;;6.17;5.70;;;24.30;99.90;;;;;;4934651;29;20199;-76
2022/09/09 10:57:44;;;;;;;6.37;5.87;;;24.30;99.90;;;;;;4936281;29;20222;-75
2022/09/09 11:00:17;;;;;;;6.30;5.80;;;24.30;99.90;;;;;;4930690;29;20291;-77
2022/09/09 11:02:44;;;;;;;6.83;6.40;;;24.30;99.90;;;;;;4920288;29;20203;-76
2022/09/09 11:05:19;;;;;;;6.70;6.30;;;24.30;99.90;;;;;;4918996;29;20287;-77
2022/09/09 11:07:52;;;;;;;6.30;5.80;;;24.30;99.90;;;;;;4917503;29;20207;-76
2022/09/09 11:10:25;;;;;;;6.60;6.00;;;24.30;99.90;;;;;;4918267;29;20228;-77
2022/09/09 11:12:55;;;;;;;3.13;2.00;;;24.30;99.90;;;;;;4918918;29;20203;-75
2022/09/09 11:15:29;;;;;;;4.10;3.80;;;24.30;99.90;;;;;;4917175;29;20203;-76
2022/09/09 11:17:59;;;;;;;5.80;5.30;;;24.30;99.90;;;;;;4917992;29;20212;-76
2022/09/09 11:20:28;;;;;;;6.00;5.57;;;24.40;99.90;;;;;;4918141;29;20697;-76
2022/09/09 11:23:00;;;;;;;5.83;5.20;;;24.50;99.90;;;;;;4918652;29;20279;-75
2022/09/09 11:25:32;;;;;;;5.60;5.20;;;24.40;99.90;;;;;;4918122;29;20281;-76
2022/09/09 11:28:15;;;;;;;4.27;3.40;;;24.60;99.90;;;;;;4945623;28;20212;-76
2022/09/09 11:30:56;;;;;;;5.60;5.00;;;24.80;99.90;;;;;;4935123;29;20222;-76
2022/09/09 11:33:39;;;;;;;5.90;5.40;;;24.40;99.90;;;;;;4933506;29;20684;-76
2022/09/09 11:36:46;;;;;;;6.17;5.67;;;23.90;99.90;;;;;;4935142;29;20247;-76
2022/09/09 11:39:39;;;;;;;4.67;4.10;;;23.40;99.90;;;;;;4876383;29;20263;-76
2022/09/09 11:42:18;;;;;;;3.83;3.53;;;22.80;99.90;;;;;;4934018;29;20195;-76
2022/09/09 11:44:45;;;;;;;5.70;5.20;;;22.60;99.90;;;;;;4922370;29;20221;-76
2022/09/09 11:47:29;;;;;;;6.10;5.60;;;22.50;99.90;;;;;;4921310;29;20622;-76
2022/09/09 11:50:07;;;;;;;5.93;5.43;;;22.40;99.90;;;;;;4917258;29;20785;-76
2022/09/09 11:52:42;;;;;;;6.00;5.60;;;22.20;99.90;;;;;;4920761;29;20629;-76
2022/09/09 11:55:25;;;;;;;6.00;5.60;;;22.20;99.90;;;;;;4934633;29;20262;-76
2022/09/09 11:57:59;;;;;;;5.80;5.50;;;22.50;99.90;;;;;;4933385;29;20208;-76
2022/09/09 12:00:35;;;;;;;6.00;5.70;;;22.70;99.90;;;;;;4933683;29;20242;-78
2022/09/09 12:03:02;;;;;;;6.37;5.90;;;22.80;99.90;;;;;;4934828;29;20203;-77
2022/09/09 12:05:39;;;;;;;6.27;5.77;;;22.90;99.90;;;;;;4934739;29;20512;-76
2022/09/09 12:08:11;;;;;;;6.20;5.70;;;22.90;99.90;;;;;;4934720;29;20202;-77
2022/09/09 12:10:41;;;;;;;6.00;5.60;;;22.80;99.90;;;;;;4934311;29;20650;-75
2022/09/09 12:13:17;;;;;;;5.07;4.77;;;22.70;99.90;;;;;;4933214;29;20200;-74
2022/09/09 12:15:49;;;;;;;6.33;5.93;;;22.70;99.90;;;;;;4934725;29;20262;-75
2022/09/09 12:18:22;;;;;;;5.73;5.43;;;22.70;99.90;;;;;;4934576;29;20203;-75
2022/09/09 12:20:57;;;;;;;5.97;5.50;;;22.70;99.90;;;;;;4934353;29;20227;-75
2022/09/09 12:23:36;;;;;;;6.00;5.60;;;22.60;99.90;;;;;;4932673;29;20687;-75
2022/09/09 12:26:17;;;;;;;6.73;6.20;;;22.50;99.90;;;;;;4933140;29;20202;-74
2022/09/09 12:28:53;;;;;;;2.63;1.53;;;22.30;99.90;;;;;;4935238;29;20206;-75
2022/09/09 12:31:25;;;;;;;3.17;1.70;;;22.30;99.90;;;;;;4939482;28;20728;-75
2022/09/09 12:33:53;;;;;;;5.20;4.80;;;22.40;99.90;;;;;;4932328;29;20199;-75
2022/09/09 12:36:22;;;;;;;5.63;5.10;;;22.30;99.90;;;;;;4934774;29;20195;-76
2022/09/09 12:38:52;;;;;;;5.47;5.07;;;22.10;99.90;;;;;;4934650;29;20207;-75
2022/09/09 12:41:24;;;;;;;2.10;1.80;;;22.10;99.90;;;;;;4934494;29;20656;-77
2022/09/09 12:43:51;;;;;;;3.60;1.90;;;22.10;99.90;;;;;;4934343;29;20298;-75
2022/09/09 12:46:31;;;;;;;2.70;1.60;;;22.30;99.90;;;;;;4933336;29;20223;-72
2022/09/09 12:48:58;;;;;;;3.30;1.77;;;22.40;99.90;;;;;;4933776;29;20230;-73
2022/09/09 12:51:29;;;;;;;1.97;1.60;;;22.40;99.90;;;;;;4933084;29;20701;-74
2022/09/09 12:53:58;;;;;;;3.23;1.80;;;22.40;99.90;;;;;;4934210;29;20207;-75
2022/09/09 12:56:27;;;;;;;3.17;1.70;;;22.40;99.90;;;;;;4932968;29;20195;-74
2022/09/09 12:58:56;;;;;;;4.40;1.83;;;22.30;99.90;;;;;;4933011;29;20691;-75
2022/09/09 13:01:26;;;;;;;2.67;1.70;;;22.40;99.90;;;;;;4934245;29;20278;-73
2022/09/09 13:03:53;;;;;;;1.97;1.67;;;22.30;99.90;;;;;;4934211;29;20203;-73
2022/09/09 13:06:23;;;;;;;3.53;2.00;;;22.40;99.90;;;;;;4934287;29;20199;-73
2022/09/09 13:09:00;;;;;;;2.33;1.70;;;22.40;99.90;;;;;;4934048;29;20286;-75
2022/09/09 13:11:32;;;;;;;10.43;2.07;;;22.30;99.90;;;;;;4934382;29;20759;-73